createdAt,value
2022-07-29T00:00:00.599Z,0.50
2022-07-29T00:02:28.249Z,0.47
2022-07-29T00:04:54.735Z,0.40
2022-07-29T00:07:21.332Z,0.60
2022-07-29T00:09:51.723Z,0.50
2022-07-29T00:12:26.550Z,0.40
2022-07-29T00:14:57.402Z,0.70
2022-07-29T00:17:25.138Z,0.95
2022-07-29T00:19:51.927Z,0.60
2022-07-29T00:22:19.000Z,0.60
2022-07-29T00:24:45.397Z,0.57
2022-07-29T00:27:11.750Z,0.50
2022-07-29T00:29:38.095Z,0.50
2022-07-29T00:32:04.742Z,0.50
2022-07-29T00:34:50.245Z,0.60
2022-07-29T00:37:16.675Z,0.80
2022-07-29T00:39:43.578Z,0.60
2022-07-29T00:42:10.658Z,0.60
2022-07-29T00:44:41.578Z,0.60
2022-07-29T00:47:08.977Z,0.55
2022-07-29T00:49:36.167Z,0.50
2022-07-29T00:52:04.308Z,0.40
2022-07-29T00:54:31.197Z,0.40
2022-07-29T00:56:59.835Z,0.52
2022-07-29T00:59:34.453Z,0.57
2022-07-29T01:02:01.903Z,0.47
2022-07-29T01:04:28.334Z,0.40
2022-07-29T01:06:55.658Z,0.50
2022-07-29T01:09:43.204Z,0.50
2022-07-29T01:12:09.869Z,0.63
2022-07-29T01:14:38.171Z,0.50
2022-07-29T01:17:18.523Z,0.60
2022-07-29T01:20:11.250Z,0.60
2022-07-29T01:23:15.285Z,0.40
2022-07-29T01:25:53.220Z,0.40
2022-07-29T01:28:47.881Z,0.50
2022-07-29T01:31:25.010Z,0.50
2022-07-29T01:33:58.483Z,0.38
2022-07-29T01:36:33.307Z,0.50
2022-07-29T01:39:08.323Z,0.40
2022-07-29T01:41:38.196Z,0.30
2022-07-29T01:44:16.031Z,0.40
2022-07-29T01:46:48.476Z,0.40
2022-07-29T01:49:22.640Z,0.30
2022-07-29T01:51:53.686Z,0.50
2022-07-29T01:54:31.610Z,0.32
2022-07-29T01:57:00.732Z,0.70
2022-07-29T01:59:28.707Z,0.50
2022-07-29T02:01:58.324Z,0.57
2022-07-29T02:04:29.328Z,0.60
2022-07-29T02:07:04.611Z,0.35
2022-07-29T02:09:34.160Z,0.50
2022-07-29T02:12:03.623Z,0.45
2022-07-29T02:14:36.981Z,0.43
2022-07-29T02:17:03.944Z,0.30
2022-07-29T02:19:33.399Z,0.30
2022-07-29T02:22:00.923Z,0.40
2022-07-29T02:24:28.688Z,0.28
2022-07-29T02:26:58.005Z,0.50
2022-07-29T02:29:27.204Z,0.40
2022-07-29T02:31:55.031Z,0.30
2022-07-29T02:34:22.627Z,0.30
2022-07-29T02:36:50.426Z,0.30
2022-07-29T02:39:19.096Z,0.50
2022-07-29T02:41:57.064Z,0.22
2022-07-29T02:44:29.024Z,0.40
2022-07-29T02:47:05.215Z,0.43
2022-07-29T02:49:37.299Z,0.50
2022-07-29T02:52:15.092Z,0.40
2022-07-29T02:54:55.870Z,0.35
2022-07-29T02:57:31.332Z,0.30
2022-07-29T02:59:59.885Z,0.60
2022-07-29T03:02:28.024Z,0.40
2022-07-29T03:04:56.272Z,0.50
2022-07-29T03:07:25.503Z,0.40
2022-07-29T03:09:53.484Z,0.40
2022-07-29T03:12:20.316Z,0.40
2022-07-29T03:14:47.390Z,0.73
2022-07-29T03:17:14.716Z,0.40
2022-07-29T03:19:41.640Z,0.30
2022-07-29T03:22:08.322Z,0.40
2022-07-29T03:24:36.627Z,0.37
2022-07-29T03:27:04.567Z,0.40
2022-07-29T03:29:33.021Z,0.50
2022-07-29T03:31:59.767Z,0.40
2022-07-29T03:34:26.130Z,0.30
2022-07-29T03:36:52.535Z,0.40
2022-07-29T03:39:25.690Z,0.30
2022-07-29T03:41:56.053Z,0.40
2022-07-29T03:44:23.543Z,0.47
2022-07-29T03:46:52.783Z,0.30
2022-07-29T03:49:21.096Z,0.40
2022-07-29T03:51:50.780Z,0.40
2022-07-29T03:54:17.485Z,0.40
2022-07-29T03:56:48.362Z,0.30
2022-07-29T03:59:17.508Z,0.30
2022-07-29T04:01:44.750Z,0.30
2022-07-29T04:04:11.672Z,0.38
2022-07-29T04:06:43.169Z,0.40
2022-07-29T04:09:10.469Z,0.30
2022-07-29T04:12:01.331Z,0.30
2022-07-29T04:14:25.260Z,0.60
2022-07-29T04:16:51.688Z,0.43
2022-07-29T04:19:18.032Z,0.30
2022-07-29T04:21:46.049Z,0.30
2022-07-29T04:24:12.653Z,0.40
2022-07-29T04:26:39.369Z,0.33
2022-07-29T04:29:05.786Z,0.40
2022-07-29T04:31:32.229Z,0.40
2022-07-29T04:33:58.656Z,0.45
2022-07-29T04:36:29.191Z,0.40
2022-07-29T04:38:56.196Z,0.50
2022-07-29T04:41:22.559Z,0.40
2022-07-29T04:43:50.165Z,0.40
2022-07-29T04:46:16.879Z,0.55
2022-07-29T04:48:43.331Z,0.50
2022-07-29T04:51:09.789Z,0.33
2022-07-29T04:53:36.210Z,0.50
2022-07-29T04:56:03.007Z,0.47
2022-07-29T04:58:29.360Z,0.30
2022-07-29T05:00:55.838Z,0.50
2022-07-29T05:03:22.339Z,0.30
2022-07-29T05:05:48.735Z,0.40
2022-07-29T05:08:15.114Z,0.40
2022-07-29T05:10:41.499Z,0.50
2022-07-29T05:13:08.519Z,0.30
2022-07-29T05:15:35.993Z,0.43
2022-07-29T05:18:02.769Z,0.40
2022-07-29T05:20:30.276Z,0.50
2022-07-29T05:22:57.551Z,0.50
2022-07-29T05:25:24.928Z,0.40
2022-07-29T05:28:10.470Z,0.40
2022-07-29T05:30:36.862Z,0.50
2022-07-29T05:33:03.230Z,0.40
2022-07-29T05:35:29.613Z,0.38
2022-07-29T05:37:55.968Z,0.60
2022-07-29T05:40:22.487Z,0.40
2022-07-29T05:42:48.885Z,0.30
2022-07-29T05:45:15.234Z,0.40
2022-07-29T05:47:41.615Z,0.30
2022-07-29T05:50:08.560Z,0.40
2022-07-29T05:52:34.916Z,0.50
2022-07-29T05:55:05.133Z,0.40
2022-07-29T05:57:31.929Z,0.40
2022-07-29T05:59:58.728Z,0.45
2022-07-29T06:02:25.189Z,0.43
2022-07-29T06:04:51.760Z,0.40
2022-07-29T06:07:18.256Z,0.50
2022-07-29T06:09:44.785Z,0.50
2022-07-29T06:12:11.451Z,1.00
2022-07-29T06:14:39.084Z,0.90
2022-07-29T06:17:06.490Z,0.60
2022-07-29T06:19:35.261Z,0.70
2022-07-29T06:22:01.729Z,0.70
2022-07-29T06:24:28.074Z,0.77
2022-07-29T06:26:54.433Z,0.80
2022-07-29T06:29:20.857Z,0.97
2022-07-29T06:31:47.258Z,0.98
2022-07-29T06:34:14.111Z,0.70
2022-07-29T06:36:41.140Z,0.80
2022-07-29T06:39:08.584Z,1.13
2022-07-29T06:41:35.650Z,0.70
2022-07-29T06:44:02.559Z,0.90
2022-07-29T06:46:29.706Z,0.77
2022-07-29T06:48:56.204Z,0.68
2022-07-29T06:51:24.081Z,0.60
2022-07-29T06:53:59.377Z,0.70
2022-07-29T06:56:28.718Z,0.60
2022-07-29T06:58:55.121Z,0.70
2022-07-29T07:01:21.600Z,0.50
2022-07-29T07:03:48.513Z,0.40
2022-07-29T07:06:17.263Z,0.77
2022-07-29T07:08:43.694Z,0.73
2022-07-29T07:11:10.168Z,0.50
2022-07-29T07:13:37.003Z,0.70
2022-07-29T07:16:04.413Z,0.70
2022-07-29T07:18:31.159Z,0.70
2022-07-29T07:20:58.237Z,0.40
2022-07-29T07:23:25.687Z,0.70
2022-07-29T07:25:53.395Z,0.50
2022-07-29T07:28:24.856Z,0.63
2022-07-29T07:30:52.497Z,0.80
2022-07-29T07:33:18.926Z,0.60
2022-07-29T07:35:45.379Z,0.65
2022-07-29T07:38:11.802Z,0.68
2022-07-29T07:40:38.190Z,0.50
2022-07-29T07:43:04.764Z,0.70
2022-07-29T07:45:33.743Z,0.50
2022-07-29T07:48:00.757Z,0.50
2022-07-29T07:50:27.500Z,0.60
2022-07-29T07:52:58.437Z,0.73
2022-07-29T07:55:25.083Z,0.60
2022-07-29T07:57:51.468Z,0.65
2022-07-29T08:00:18.140Z,0.55
2022-07-29T08:02:46.000Z,0.90
2022-07-29T08:05:17.513Z,1.00
2022-07-29T08:07:45.793Z,0.70
2022-07-29T08:10:12.441Z,1.00
2022-07-29T08:12:38.971Z,0.60
2022-07-29T08:15:08.150Z,0.80
2022-07-29T08:17:35.350Z,0.63
2022-07-29T08:20:02.004Z,1.07
2022-07-29T08:22:29.380Z,0.70
2022-07-29T08:24:56.957Z,0.68
2022-07-29T08:27:42.378Z,0.80
2022-07-29T08:30:10.995Z,0.65
2022-07-29T08:32:53.243Z,0.70
2022-07-29T08:35:22.327Z,0.68
2022-07-29T08:37:49.122Z,0.65
2022-07-29T08:40:15.634Z,0.60
2022-07-29T08:42:42.255Z,0.60
2022-07-29T08:45:09.297Z,1.10
2022-07-29T08:47:40.437Z,0.90
2022-07-29T08:50:08.814Z,0.70
2022-07-29T08:52:38.554Z,0.70
2022-07-29T08:55:06.953Z,0.70
2022-07-29T08:57:34.954Z,0.70
2022-07-29T09:00:11.324Z,0.90
2022-07-29T09:02:42.551Z,1.00
2022-07-29T09:05:09.678Z,0.50
2022-07-29T09:07:36.444Z,1.00
2022-07-29T09:10:05.216Z,1.03
2022-07-29T09:12:37.589Z,0.82
2022-07-29T09:15:04.742Z,0.55
2022-07-29T09:17:42.738Z,0.60
2022-07-29T09:20:11.792Z,0.65
2022-07-29T09:22:41.855Z,0.90
2022-07-29T09:25:09.250Z,0.77
2022-07-29T09:27:35.696Z,0.55
2022-07-29T09:30:08.669Z,0.60
2022-07-29T09:32:55.540Z,0.60
2022-07-29T09:35:24.378Z,1.00
2022-07-29T09:37:51.402Z,0.70
2022-07-29T09:40:22.738Z,0.60
2022-07-29T09:42:49.749Z,0.60
2022-07-29T09:45:31.451Z,0.80
2022-07-29T09:48:01.276Z,0.67
2022-07-29T09:50:38.940Z,0.57
2022-07-29T09:53:05.396Z,0.60
2022-07-29T09:55:31.794Z,0.90
2022-07-29T09:58:20.205Z,0.47
2022-07-29T10:00:48.038Z,0.70
2022-07-29T10:03:16.555Z,0.70
2022-07-29T10:05:44.058Z,0.80
2022-07-29T10:08:13.215Z,0.50
2022-07-29T10:10:42.623Z,0.90
2022-07-29T10:13:16.354Z,1.43
2022-07-29T10:15:46.027Z,0.70
2022-07-29T10:18:14.305Z,0.63
2022-07-29T10:20:41.388Z,1.30
2022-07-29T10:23:08.039Z,0.70
2022-07-29T10:25:34.428Z,1.10
2022-07-29T10:28:00.792Z,0.80
2022-07-29T10:30:27.660Z,1.05
2022-07-29T10:33:12.967Z,1.00
2022-07-29T10:35:44.736Z,1.27
2022-07-29T10:38:45.793Z,0.83
2022-07-29T10:41:27.378Z,1.00
2022-07-29T10:44:00.425Z,0.90
2022-07-29T10:46:28.778Z,0.77
2022-07-29T10:49:11.440Z,0.70
2022-07-29T10:51:55.809Z,0.70
2022-07-29T10:54:47.160Z,0.90
2022-07-29T10:57:13.997Z,0.70
2022-07-29T10:59:41.299Z,0.77
2022-07-29T11:02:42.131Z,0.77
2022-07-29T11:05:13.840Z,0.77
2022-07-29T11:08:02.325Z,0.90
2022-07-29T11:10:31.372Z,0.60
2022-07-29T11:12:59.098Z,1.50
2022-07-29T11:15:25.667Z,0.80
2022-07-29T11:17:55.111Z,0.80
2022-07-29T11:20:40.449Z,0.95
2022-07-29T11:23:20.853Z,0.93
2022-07-29T11:26:13.482Z,1.92
2022-07-29T11:28:55.706Z,0.70
2022-07-29T11:31:35.949Z,1.20
2022-07-29T11:34:19.130Z,0.90
2022-07-29T11:37:06.161Z,0.73
2022-07-29T11:42:32.323Z,1.30
2022-07-29T11:45:43.056Z,0.90
2022-07-29T11:48:29.753Z,0.98
2022-07-29T11:50:53.247Z,1.13
2022-07-29T11:53:19.753Z,1.08
2022-07-29T11:55:55.275Z,0.77
2022-07-29T11:58:26.000Z,1.00
2022-07-29T12:00:53.310Z,0.82
2022-07-29T12:03:34.190Z,0.70
2022-07-29T12:06:04.487Z,0.80
2022-07-29T12:08:41.621Z,0.90
2022-07-29T12:11:16.791Z,0.80
2022-07-29T12:13:43.235Z,0.70
2022-07-29T12:16:09.642Z,1.02
2022-07-29T12:18:41.040Z,0.63
2022-07-29T12:21:09.124Z,0.90
2022-07-29T12:23:38.730Z,0.90
2022-07-29T12:26:07.411Z,0.90
2022-07-29T12:28:40.430Z,0.75
2022-07-29T12:31:14.202Z,0.90
2022-07-29T12:33:40.717Z,0.60
2022-07-29T12:36:10.506Z,1.10
2022-07-29T12:38:41.374Z,0.90
2022-07-29T12:41:07.917Z,1.02
2022-07-29T12:43:34.407Z,1.35
2022-07-29T12:46:13.962Z,0.73
2022-07-29T12:48:43.272Z,0.90
2022-07-29T12:51:11.030Z,1.00
2022-07-29T12:53:38.327Z,0.60
2022-07-29T12:56:20.610Z,1.02
2022-07-29T12:58:51.085Z,0.77
2022-07-29T13:01:20.408Z,1.00
2022-07-29T13:03:57.463Z,1.10
2022-07-29T13:06:36.394Z,1.02
2022-07-29T13:09:08.649Z,1.20
2022-07-29T13:11:47.901Z,0.98
2022-07-29T13:14:34.921Z,0.80
2022-07-29T13:17:19.068Z,1.23
2022-07-29T13:19:53.876Z,1.20
2022-07-29T13:22:25.005Z,0.95
2022-07-29T13:25:03.983Z,0.98
2022-07-29T13:27:33.768Z,0.83
2022-07-29T13:30:02.584Z,1.25
2022-07-29T13:32:31.444Z,1.25
2022-07-29T13:34:59.868Z,1.13
2022-07-29T13:37:27.208Z,0.98
2022-07-29T13:39:54.991Z,0.87
2022-07-29T13:42:21.523Z,1.15
2022-07-29T13:44:49.515Z,0.93
2022-07-29T13:47:17.048Z,1.30
2022-07-29T13:49:43.569Z,1.05
2022-07-29T13:52:09.939Z,0.90
2022-07-29T13:54:42.362Z,1.40
2022-07-29T13:57:09.206Z,1.05
2022-07-29T13:59:35.601Z,0.90
2022-07-29T14:02:01.982Z,1.30
2022-07-29T14:04:28.375Z,1.50
2022-07-29T14:06:55.101Z,2.17
2022-07-29T14:09:21.578Z,1.20
2022-07-29T14:11:50.512Z,1.23
2022-07-29T14:14:16.887Z,1.20
2022-07-29T14:16:47.611Z,1.10
2022-07-29T14:19:16.974Z,1.38
2022-07-29T14:21:43.376Z,1.10
2022-07-29T14:24:16.302Z,1.40
2022-07-29T14:26:47.988Z,1.35
2022-07-29T14:29:14.480Z,1.50
2022-07-29T14:31:41.003Z,0.98
2022-07-29T14:34:07.420Z,1.55
2022-07-29T14:36:33.802Z,1.45
2022-07-29T14:39:00.143Z,1.33
2022-07-29T14:41:29.067Z,1.03
2022-07-29T14:43:55.448Z,1.30
2022-07-29T14:46:21.841Z,1.30
2022-07-29T14:48:48.325Z,1.35
2022-07-29T14:51:14.849Z,1.20
2022-07-29T14:53:41.200Z,1.20
2022-07-29T14:56:35.065Z,1.33
2022-07-29T14:58:53.934Z,0.90
2022-07-29T15:01:20.455Z,1.60
2022-07-29T15:03:47.013Z,1.90
2022-07-29T15:06:13.475Z,1.13
2022-07-29T15:08:39.909Z,1.17
2022-07-29T15:11:06.395Z,1.20
2022-07-29T15:13:33.651Z,1.75
2022-07-29T15:16:00.512Z,1.40
2022-07-29T15:18:27.054Z,1.00
2022-07-29T15:20:53.424Z,1.17
2022-07-29T15:23:20.592Z,1.15
2022-07-29T15:25:47.235Z,1.00
2022-07-29T15:28:13.655Z,0.95
2022-07-29T15:30:42.769Z,2.27
2022-07-29T15:33:10.370Z,1.50
2022-07-29T15:35:40.433Z,1.20
2022-07-29T15:38:07.902Z,2.05
2022-07-29T15:40:34.356Z,1.10
2022-07-29T15:43:06.534Z,1.20
2022-07-29T15:45:40.131Z,1.13
2022-07-29T15:48:08.471Z,1.30
2022-07-29T15:50:35.596Z,1.20
2022-07-29T15:53:03.081Z,1.00
2022-07-29T15:55:29.503Z,1.30
2022-07-29T15:58:00.307Z,1.33
2022-07-29T16:00:27.210Z,1.70
2022-07-29T16:02:53.565Z,1.40
2022-07-29T16:05:20.021Z,1.00
2022-07-29T16:07:46.462Z,1.50
2022-07-29T16:10:12.855Z,1.15
2022-07-29T16:12:39.298Z,1.10
2022-07-29T16:15:09.933Z,1.05
2022-07-29T16:17:37.759Z,1.50
2022-07-29T16:20:05.793Z,1.37
2022-07-29T16:22:32.484Z,1.48
2022-07-29T16:24:58.899Z,1.17
2022-07-29T16:27:34.284Z,1.50
2022-07-29T16:30:05.828Z,1.25
2022-07-29T16:32:32.200Z,1.37
2022-07-29T16:34:58.585Z,1.85
2022-07-29T16:37:24.965Z,1.40
2022-07-29T16:39:55.239Z,1.20
2022-07-29T16:42:45.064Z,1.27
2022-07-29T16:45:10.481Z,1.40
2022-07-29T16:47:37.031Z,1.35
2022-07-29T16:50:04.708Z,1.45
2022-07-29T16:52:31.090Z,1.40
2022-07-29T16:54:57.459Z,1.63
2022-07-29T16:57:24.271Z,1.90
2022-07-29T16:59:51.546Z,1.80
2022-07-29T17:02:18.485Z,1.70
2022-07-29T17:04:44.910Z,1.52
2022-07-29T17:07:11.674Z,1.67
2022-07-29T17:09:38.129Z,1.57
2022-07-29T17:12:04.835Z,1.60
2022-07-29T17:14:31.867Z,1.60
2022-07-29T17:17:00.932Z,1.63
2022-07-29T17:19:31.754Z,1.67
2022-07-29T17:22:06.379Z,1.80
2022-07-29T17:24:37.152Z,1.40
2022-07-29T17:27:04.983Z,0.90
2022-07-29T17:29:31.419Z,1.17
2022-07-29T17:31:59.383Z,1.23
2022-07-29T17:34:25.871Z,1.03
2022-07-29T17:36:52.383Z,1.83
2022-07-29T17:39:18.745Z,1.20
2022-07-29T17:41:46.696Z,0.95
2022-07-29T17:44:13.461Z,1.00
2022-07-29T17:46:40.661Z,1.00
2022-07-29T17:49:10.176Z,0.82
2022-07-29T17:51:36.670Z,1.10
2022-07-29T17:54:03.330Z,0.93
2022-07-29T17:56:29.719Z,1.00
2022-07-29T17:58:57.189Z,1.03
2022-07-29T18:01:26.009Z,0.80
2022-07-29T18:03:53.220Z,1.00
2022-07-29T18:06:20.834Z,1.00
2022-07-29T18:08:47.823Z,1.55
2022-07-29T18:11:15.161Z,0.80
2022-07-29T18:13:41.951Z,0.95
2022-07-29T18:16:11.566Z,0.80
2022-07-29T18:18:38.081Z,1.15
2022-07-29T18:21:04.517Z,1.10
2022-07-29T18:23:31.272Z,1.37
2022-07-29T18:25:57.619Z,1.20
2022-07-29T18:28:24.006Z,1.58
2022-07-29T18:30:50.515Z,1.38
2022-07-29T18:33:21.209Z,1.10
2022-07-29T18:35:49.463Z,1.20
2022-07-29T18:38:15.951Z,1.30
2022-07-29T18:40:42.521Z,1.40
2022-07-29T18:43:09.108Z,1.20
2022-07-29T18:45:35.475Z,1.27
2022-07-29T18:48:02.268Z,1.20
2022-07-29T18:50:30.110Z,1.05
2022-07-29T18:52:58.520Z,1.02
2022-07-29T18:55:26.003Z,1.17
2022-07-29T18:57:54.256Z,1.60
2022-07-29T19:00:23.797Z,1.13
2022-07-29T19:02:50.331Z,1.60
2022-07-29T19:05:16.902Z,1.10
2022-07-29T19:07:46.345Z,1.90
2022-07-29T19:10:13.442Z,1.30
2022-07-29T19:12:42.986Z,1.50
2022-07-29T19:15:10.595Z,1.20
2022-07-29T19:17:39.374Z,1.20
2022-07-29T19:20:07.387Z,1.50
2022-07-29T19:22:34.309Z,1.08
2022-07-29T19:25:00.722Z,1.40
2022-07-29T19:27:27.067Z,1.50
2022-07-29T19:29:55.086Z,1.48
2022-07-29T19:32:25.598Z,1.40
2022-07-29T19:35:11.426Z,1.40
2022-07-29T19:37:37.794Z,1.43
2022-07-29T19:40:05.719Z,1.60
2022-07-29T19:42:32.167Z,1.38
2022-07-29T19:44:58.721Z,1.23
2022-07-29T19:47:25.100Z,1.25
2022-07-29T19:49:51.514Z,1.10
2022-07-29T19:52:17.981Z,1.30
2022-07-29T19:54:44.363Z,1.38
2022-07-29T19:57:10.762Z,1.35
2022-07-29T19:59:37.145Z,1.40
2022-07-29T20:02:03.817Z,1.30
2022-07-29T20:04:33.170Z,1.80
2022-07-29T20:07:04.402Z,1.48
2022-07-29T20:09:31.183Z,1.50
2022-07-29T20:11:57.756Z,1.30
2022-07-29T20:14:24.112Z,1.40
2022-07-29T20:16:50.992Z,1.83
2022-07-29T20:19:17.402Z,1.20
2022-07-29T20:21:44.257Z,1.50
2022-07-29T20:24:11.201Z,1.27
2022-07-29T20:26:37.610Z,1.07
2022-07-29T20:29:05.207Z,1.38
2022-07-29T20:31:34.130Z,1.63
2022-07-29T20:34:01.528Z,0.85
2022-07-29T20:36:28.304Z,1.13
2022-07-29T20:38:55.185Z,1.17
2022-07-29T20:41:21.651Z,1.20
2022-07-29T20:43:49.706Z,1.23
2022-07-29T20:46:16.120Z,1.10
2022-07-29T20:48:42.793Z,1.10
2022-07-29T20:51:09.239Z,1.60
2022-07-29T20:53:37.821Z,1.17
2022-07-29T20:56:04.511Z,1.13
2022-07-29T20:58:32.535Z,1.20
2022-07-29T21:00:58.876Z,1.10
2022-07-29T21:03:26.450Z,1.27
2022-07-29T21:05:52.923Z,1.38
2022-07-29T21:08:19.292Z,1.50
2022-07-29T21:10:45.684Z,1.27
2022-07-29T21:13:13.919Z,1.10
2022-07-29T21:15:45.878Z,1.53
2022-07-29T21:18:27.839Z,1.58
2022-07-29T21:20:55.018Z,1.20
2022-07-29T21:23:21.471Z,1.10
2022-07-29T21:25:47.827Z,1.42
2022-07-29T21:28:32.736Z,1.30
2022-07-29T21:31:03.552Z,1.20
2022-07-29T21:33:31.300Z,1.20
2022-07-29T21:38:44.091Z,1.02
2022-07-29T21:41:12.465Z,1.10
2022-07-29T21:43:41.843Z,1.17
2022-07-29T21:46:09.026Z,1.02
2022-07-29T21:48:35.479Z,1.58
2022-07-29T21:51:02.161Z,1.10
2022-07-29T21:53:28.620Z,1.47
2022-07-29T21:55:55.512Z,1.20
2022-07-29T21:58:22.838Z,0.93
2022-07-29T22:00:49.944Z,1.20
2022-07-29T22:03:16.458Z,1.00
2022-07-29T22:05:42.906Z,0.97
2022-07-29T22:08:09.504Z,1.00
2022-07-29T22:10:36.039Z,1.00
2022-07-29T22:13:03.115Z,1.20
2022-07-29T22:15:29.851Z,1.17
2022-07-29T22:17:56.703Z,0.90
2022-07-29T22:20:23.563Z,1.00
2022-07-29T22:22:49.912Z,0.80
2022-07-29T22:25:16.479Z,1.05
2022-07-29T22:27:43.170Z,1.02
2022-07-29T22:30:10.364Z,0.83
2022-07-29T22:32:36.887Z,0.98
2022-07-29T22:35:03.813Z,0.98
2022-07-29T22:37:30.218Z,0.98
2022-07-29T22:39:56.826Z,0.98
2022-07-29T22:42:23.284Z,1.10
2022-07-29T22:44:49.659Z,0.90
2022-07-29T22:47:15.995Z,0.88
2022-07-29T22:49:42.564Z,1.10
2022-07-29T22:52:09.137Z,0.90
2022-07-29T22:54:35.564Z,1.00
2022-07-29T22:57:02.890Z,1.10
2022-07-29T22:59:29.308Z,0.85
2022-07-29T23:01:55.740Z,1.10
2022-07-29T23:04:23.651Z,1.75
2022-07-29T23:06:51.024Z,0.93
2022-07-29T23:09:17.632Z,1.80
2022-07-29T23:11:44.046Z,1.00
2022-07-29T23:14:10.459Z,1.00
2022-07-29T23:16:36.904Z,0.70
2022-07-29T23:19:03.420Z,1.20
2022-07-29T23:21:29.835Z,1.13
2022-07-29T23:23:56.216Z,0.65
2022-07-29T23:26:22.620Z,1.00
2022-07-29T23:28:49.026Z,0.77
2022-07-29T23:31:15.510Z,1.07
2022-07-29T23:33:41.972Z,0.90
2022-07-29T23:36:08.367Z,0.90
2022-07-29T23:38:34.768Z,0.80
2022-07-29T23:41:02.207Z,0.82
2022-07-29T23:43:28.763Z,0.77
2022-07-29T23:45:56.134Z,0.73
2022-07-29T23:48:24.597Z,1.00
2022-07-29T23:50:50.999Z,0.85
2022-07-29T23:53:17.566Z,1.02
2022-07-29T23:55:43.932Z,0.70
2022-07-29T23:58:10.389Z,0.95
